Time;durP1;ratioP1;P1;durP2;ratioP2;P2;SDS_P1;SDS_P2;PMS_P1;PMS_P2;Temp;Humidity;BMP_temperature;BMP_pressure;BME280_temperature;BME280_humidity;BME280_pressure;Samples;Min_cycle;Max_cycle;Signal;HPM_P1;HPM_P2
2022/09/10 00:02:20;;;;;;;12.70;9.88;;;15.40;99.90;;;;;;5070093;28;20048;-63
2022/09/10 00:04:45;;;;;;;12.80;9.80;;;15.40;99.90;;;;;;5070804;28;20037;-63
2022/09/10 00:07:11;;;;;;;14.80;10.40;;;15.40;99.90;;;;;;5069822;28;20553;-63
2022/09/10 00:09:37;;;;;;;12.70;9.82;;;15.40;99.90;;;;;;5071479;28;20044;-63
2022/09/10 00:12:03;;;;;;;12.65;10.02;;;15.40;99.90;;;;;;5071413;28;20060;-63
2022/09/10 00:14:31;;;;;;;11.25;9.93;;;15.40;99.90;;;;;;5069780;28;20086;-63
2022/09/10 00:16:56;;;;;;;12.05;10.30;;;15.40;99.90;;;;;;5071857;28;20044;-63
2022/09/10 00:19:22;;;;;;;12.57;10.73;;;15.30;99.90;;;;;;5064815;28;20400;-63
2022/09/10 00:21:49;;;;;;;14.90;11.02;;;15.40;99.90;;;;;;5068623;28;20033;-63
2022/09/10 00:24:16;;;;;;;12.32;10.35;;;15.30;99.90;;;;;;5070729;28;20139;-63
2022/09/10 00:26:41;;;;;;;15.18;11.00;;;15.30;99.90;;;;;;5069816;28;20520;-64
2022/09/10 00:29:09;;;;;;;14.13;10.65;;;15.40;99.90;;;;;;5067418;28;20032;-63
2022/09/10 00:31:36;;;;;;;14.70;10.90;;;15.30;99.90;;;;;;5067118;28;20400;-63
2022/09/10 00:34:03;;;;;;;12.15;10.52;;;15.30;99.90;;;;;;5068039;28;20044;-63
2022/09/10 00:36:35;;;;;;;14.73;10.98;;;15.30;99.90;;;;;;5066451;28;20500;-63
2022/09/10 00:39:02;;;;;;;;;;;15.30;99.90;;;;;;5064611;28;20079;-63
2022/09/10 00:41:28;;;;;;;13.57;10.80;;;15.30;99.90;;;;;;5067046;28;19916;-64
2022/09/10 00:44:03;;;;;;;14.13;11.10;;;15.30;99.90;;;;;;5064211;28;20086;-63
2022/09/10 00:46:34;;;;;;;14.25;11.55;;;15.30;99.90;;;;;;5067020;28;20416;-63
2022/09/10 00:49:04;;;;;;;15.25;12.23;;;15.40;99.90;;;;;;5054991;28;20050;-63
2022/09/10 00:51:33;;;;;;;16.35;11.77;;;15.40;99.90;;;;;;5058805;28;20045;-63
2022/09/10 00:54:00;;;;;;;16.67;12.43;;;15.40;99.90;;;;;;5062685;28;20079;-64
2022/09/10 00:56:27;;;;;;;18.40;12.75;;;15.40;99.90;;;;;;5066835;28;20109;-63
2022/09/10 00:58:52;;;;;;;15.88;12.73;;;15.40;99.90;;;;;;5070207;28;20074;-63
2022/09/10 01:01:19;;;;;;;18.58;12.45;;;15.40;99.90;;;;;;5069074;28;20439;-64
2022/09/10 01:03:46;;;;;;;16.85;12.50;;;15.40;99.90;;;;;;5100537;23;20032;-75
2022/09/10 01:06:12;;;;;;;18.02;13.60;;;15.40;99.90;;;;;;5089994;28;20404;-75
2022/09/10 01:08:37;;;;;;;15.73;12.93;;;15.50;99.90;;;;;;5089495;28;20036;-76
2022/09/10 01:11:30;;;;;;;18.30;13.50;;;15.40;99.90;;;;;;5073180;28;20035;-76
2022/09/10 01:14:04;;;;;;;15.80;12.93;;;15.50;99.90;;;;;;5076181;28;20464;-76
2022/09/10 01:16:37;;;;;;;15.80;12.43;;;15.60;99.90;;;;;;5069840;28;20475;-76
2022/09/10 01:19:25;;;;;;;16.17;13.50;;;15.50;99.90;;;;;;5064694;28;20066;-76
2022/09/10 01:22:14;;;;;;;18.08;13.38;;;15.50;99.90;;;;;;5069230;28;20028;-75
2022/09/10 01:24:55;;;;;;;17.45;13.93;;;15.50;99.90;;;;;;5069002;28;20131;-75
2022/09/10 01:27:37;;;;;;;18.58;12.18;;;15.50;99.90;;;;;;5069370;28;20044;-75
2022/09/10 01:30:23;;;;;;;15.45;13.00;;;15.50;99.90;;;;;;5062098;28;20127;-75
2022/09/10 01:33:06;;;;;;;18.67;13.23;;;15.50;99.90;;;;;;5067967;28;20045;-74
2022/09/10 01:35:48;;;;;;;17.75;13.23;;;15.60;99.90;;;;;;5069030;28;20045;-75
2022/09/10 01:38:19;;;;;;;16.48;12.13;;;15.60;99.90;;;;;;5063919;28;20523;-75
2022/09/10 01:40:46;;;;;;;16.67;12.77;;;15.60;99.90;;;;;;5069494;28;20082;-74
2022/09/10 01:43:12;;;;;;;16.10;12.48;;;15.70;99.90;;;;;;5063756;28;20282;-75
2022/09/10 01:45:50;;;;;;;17.23;13.10;;;15.60;99.90;;;;;;5068996;28;20056;-74
2022/09/10 01:48:49;;;;;;;16.67;12.75;;;15.60;99.90;;;;;;5072393;28;20129;-75
2022/09/10 01:51:39;;;;;;;16.65;12.02;;;15.60;99.90;;;;;;5052192;28;20044;-75
2022/09/10 01:54:25;;;;;;;17.02;12.13;;;15.60;99.90;;;;;;5067452;28;20098;-74
2022/09/10 01:57:02;;;;;;;15.30;12.52;;;15.60;99.90;;;;;;5072964;28;20959;-75
2022/09/10 01:59:59;;;;;;;18.70;13.32;;;15.60;99.90;;;;;;5072942;28;20045;-74
2022/09/10 02:02:35;;;;;;;16.85;12.45;;;15.60;99.90;;;;;;5082179;28;20116;-75
2022/09/10 02:05:05;;;;;;;16.63;12.65;;;15.60;99.90;;;;;;5069829;28;20093;-74
2022/09/10 02:07:34;;;;;;;15.95;12.07;;;15.60;99.90;;;;;;5073233;28;20109;-74
2022/09/10 02:10:02;;;;;;;17.17;12.35;;;15.50;99.90;;;;;;5068940;28;20049;-74
2022/09/10 02:12:27;;;;;;;16.17;13.07;;;15.50;99.90;;;;;;5069346;28;20055;-74
2022/09/10 02:14:55;;;;;;;17.83;12.45;;;15.50;99.90;;;;;;5085628;28;20406;-74
2022/09/10 02:17:32;;;;;;;17.40;12.60;;;15.50;99.90;;;;;;5073108;28;20094;-74
2022/09/10 02:19:58;;;;;;;14.18;12.23;;;15.50;99.90;;;;;;5065085;28;20048;-75
2022/09/10 02:22:24;;;;;;;16.63;12.10;;;15.50;99.90;;;;;;5072869;28;20072;-75
2022/09/10 02:24:51;;;;;;;15.95;12.23;;;15.50;99.90;;;;;;5072668;28;20127;-75
2022/09/10 02:27:16;;;;;;;17.02;12.30;;;15.40;99.90;;;;;;5072452;28;20079;-75
2022/09/10 02:29:42;;;;;;;19.58;12.98;;;15.50;99.90;;;;;;5072706;28;20084;-74
2022/09/10 02:32:08;;;;;;;16.90;12.27;;;15.50;99.90;;;;;;5072846;28;20051;-74
2022/09/10 02:34:35;;;;;;;18.92;12.48;;;15.50;99.90;;;;;;5063504;28;20133;-74
2022/09/10 02:37:02;;;;;;;15.73;11.95;;;15.50;99.90;;;;;;5072091;28;20044;-74
2022/09/10 02:39:28;;;;;;;17.70;12.52;;;15.50;99.90;;;;;;5072369;28;20071;-74
2022/09/10 02:41:54;;;;;;;17.70;12.88;;;15.50;99.90;;;;;;5072494;28;20123;-74
2022/09/10 02:44:20;;;;;;;15.02;12.20;;;15.50;99.90;;;;;;5072047;28;20040;-74
2022/09/10 02:46:46;;;;;;;19.40;12.63;;;15.50;99.90;;;;;;5054248;28;20044;-74
2022/09/10 02:49:12;;;;;;;18.33;12.73;;;15.50;99.90;;;;;;5073712;28;20512;-74
2022/09/10 02:51:38;;;;;;;16.42;11.90;;;15.50;99.90;;;;;;5061254;28;20033;-74
2022/09/10 02:54:04;;;;;;;16.73;12.88;;;15.50;99.90;;;;;;5071858;28;20530;-74
2022/09/10 02:56:33;;;;;;;16.20;13.13;;;15.50;99.90;;;;;;5055511;28;20047;-74
2022/09/10 02:58:58;;;;;;;16.30;12.20;;;15.60;99.90;;;;;;5071006;28;20044;-74
2022/09/10 03:01:24;;;;;;;18.35;12.90;;;15.60;99.90;;;;;;5072300;28;20059;-74
2022/09/10 03:03:53;;;;;;;15.68;11.88;;;15.60;99.90;;;;;;5067684;28;20409;-74
2022/09/10 03:06:20;;;;;;;13.63;10.65;;;15.50;99.90;;;;;;5071776;28;20054;-74
2022/09/10 03:08:47;;;;;;;16.58;12.68;;;15.60;99.90;;;;;;5071885;28;20032;-74
2022/09/10 03:11:14;;;;;;;18.80;12.80;;;15.60;99.90;;;;;;5055767;28;20413;-74
2022/09/10 03:13:41;;;;;;;15.65;12.07;;;15.60;99.90;;;;;;5063951;28;20044;-74
2022/09/10 03:16:08;;;;;;;15.88;11.93;;;15.60;99.90;;;;;;5071930;28;20502;-74
2022/09/10 03:18:34;;;;;;;17.30;11.93;;;15.60;99.90;;;;;;5071883;28;20115;-74
2022/09/10 03:21:17;;;;;;;16.17;12.30;;;15.60;99.90;;;;;;5071749;28;20149;-74
2022/09/10 03:23:43;;;;;;;19.13;12.93;;;15.60;99.90;;;;;;5070983;28;20052;-74
2022/09/10 03:26:09;;;;;;;17.63;12.80;;;15.60;99.90;;;;;;5085515;28;20033;-74
2022/09/10 03:28:36;;;;;;;17.08;12.73;;;15.70;99.90;;;;;;5072936;28;20120;-74
2022/09/10 03:31:03;;;;;;;19.95;13.10;;;15.60;99.90;;;;;;5071317;28;20401;-74
2022/09/10 03:33:29;;;;;;;17.85;12.75;;;15.60;99.90;;;;;;5071204;28;20045;-74
2022/09/10 03:35:54;;;;;;;19.33;12.95;;;15.60;99.90;;;;;;5068841;28;20036;-74
2022/09/10 03:38:21;;;;;;;17.45;12.15;;;15.60;99.90;;;;;;5071563;28;20442;-74
2022/09/10 03:40:47;;;;;;;17.88;12.68;;;15.60;99.90;;;;;;5069079;28;20536;-74
2022/09/10 03:43:12;;;;;;;17.77;12.80;;;15.60;99.90;;;;;;5071361;28;20319;-74
2022/09/10 03:45:38;;;;;;;19.20;12.77;;;15.60;99.90;;;;;;5068770;28;20079;-74
2022/09/10 03:48:04;;;;;;;21.40;12.77;;;15.60;99.90;;;;;;5070305;28;20596;-74
2022/09/10 03:50:33;;;;;;;19.40;13.35;;;15.60;99.90;;;;;;5054888;28;20051;-74
2022/09/10 03:52:58;;;;;;;20.90;12.73;;;15.70;99.90;;;;;;5068774;28;20041;-74
2022/09/10 03:55:24;;;;;;;17.48;12.65;;;15.70;99.90;;;;;;5070729;28;20040;-74
2022/09/10 03:57:49;;;;;;;19.48;12.80;;;15.60;99.90;;;;;;5070609;28;20131;-74
2022/09/10 04:00:16;;;;;;;22.20;13.65;;;15.60;99.90;;;;;;5070716;28;20036;-74
2022/09/10 04:02:43;;;;;;;18.13;13.18;;;15.60;99.90;;;;;;5070728;28;20045;-74
2022/09/10 04:05:09;;;;;;;19.77;13.13;;;15.70;99.90;;;;;;5070503;28;20040;-74
2022/09/10 04:07:35;;;;;;;17.77;12.80;;;15.60;99.90;;;;;;5070749;28;20170;-74
2022/09/10 04:10:02;;;;;;;17.63;13.25;;;15.60;99.90;;;;;;5070542;28;20170;-74
2022/09/10 04:12:28;;;;;;;22.55;14.10;;;15.60;99.90;;;;;;5070592;28;20528;-74
2022/09/10 04:14:54;;;;;;;19.27;13.07;;;15.50;99.90;;;;;;5070128;28;20048;-74
2022/09/10 04:17:19;;;;;;;17.88;12.65;;;15.60;99.90;;;;;;5070214;28;20032;-74
2022/09/10 04:19:45;;;;;;;19.83;13.07;;;15.50;99.90;;;;;;5070958;28;20033;-74
2022/09/10 04:22:10;;;;;;;19.83;12.43;;;15.60;99.90;;;;;;5068278;28;20040;-74
2022/09/10 04:24:36;;;;;;;16.73;12.73;;;15.60;99.90;;;;;;5063348;28;20091;-74
2022/09/10 04:27:02;;;;;;;16.92;12.43;;;15.50;99.90;;;;;;5070739;28;20051;-74
2022/09/10 04:29:28;;;;;;;17.80;12.88;;;15.50;99.90;;;;;;5066620;28;20040;-74
2022/09/10 04:31:54;;;;;;;19.63;13.70;;;15.60;99.90;;;;;;5070118;28;20078;-73
2022/09/10 04:34:21;;;;;;;18.77;12.55;;;15.50;99.90;;;;;;5069535;28;20496;-74
2022/09/10 04:36:48;;;;;;;18.90;13.65;;;15.50;99.90;;;;;;5070383;28;20039;-73
2022/09/10 04:39:15;;;;;;;18.02;12.77;;;15.60;99.90;;;;;;5070297;28;20059;-73
2022/09/10 04:41:41;;;;;;;19.65;13.18;;;15.50;99.90;;;;;;5070314;28;20040;-73
2022/09/10 04:44:06;;;;;;;22.42;12.70;;;15.50;99.90;;;;;;5069726;28;20048;-73
2022/09/10 04:46:32;;;;;;;18.48;13.23;;;15.50;99.90;;;;;;5070035;28;20051;-74
2022/09/10 04:48:59;;;;;;;18.77;12.95;;;15.50;99.90;;;;;;5070224;28;20175;-73
2022/09/10 04:51:25;;;;;;;16.08;12.73;;;15.50;99.90;;;;;;5070202;28;20041;-74
2022/09/10 04:53:50;;;;;;;19.23;13.23;;;15.40;99.90;;;;;;5070091;28;20043;-74
2022/09/10 04:56:16;;;;;;;21.73;13.20;;;15.60;99.90;;;;;;5069549;28;20049;-74
2022/09/10 04:58:42;;;;;;;18.85;13.80;;;15.40;99.90;;;;;;5053183;28;20046;-74
2022/09/10 05:01:11;;;;;;;24.33;14.20;;;15.50;99.90;;;;;;5070111;28;20044;-74
2022/09/10 05:03:36;;;;;;;20.15;13.25;;;15.50;99.90;;;;;;5070637;28;20051;-74
2022/09/10 05:06:04;;;;;;;20.55;14.23;;;15.40;99.90;;;;;;5053249;28;20174;-73
2022/09/10 05:08:30;;;;;;;26.15;14.32;;;15.50;99.90;;;;;;5069795;28;20516;-73
2022/09/10 05:11:01;;;;;;;22.48;14.27;;;15.50;99.90;;;;;;5053473;28;20040;-74
2022/09/10 05:13:29;;;;;;;21.75;14.43;;;15.40;99.90;;;;;;5069333;28;20052;-74
2022/09/10 05:15:57;;;;;;;21.15;14.43;;;15.50;99.90;;;;;;5069361;28;20047;-74
2022/09/10 05:18:25;;;;;;;24.10;14.93;;;15.50;99.90;;;;;;5069655;28;20055;-74
2022/09/10 05:20:51;;;;;;;26.30;14.95;;;15.50;99.90;;;;;;5068566;28;20108;-74
2022/09/10 05:23:17;;;;;;;20.20;13.52;;;15.40;99.90;;;;;;5069397;28;20459;-74
2022/09/10 05:25:43;;;;;;;23.83;14.95;;;15.50;99.90;;;;;;5062055;28;20087;-74
2022/09/10 05:28:10;;;;;;;25.67;15.43;;;15.50;99.90;;;;;;5069751;28;20103;-74
2022/09/10 05:30:35;;;;;;;21.60;14.60;;;15.50;99.90;;;;;;5069169;28;20486;-74
2022/09/10 05:33:01;;;;;;;22.33;15.07;;;15.50;99.90;;;;;;5069799;28;20135;-74
2022/09/10 05:35:27;;;;;;;23.98;15.80;;;15.40;99.90;;;;;;5065392;28;20043;-74
2022/09/10 05:37:56;;;;;;;21.10;14.68;;;15.50;99.90;;;;;;5061432;28;20080;-74
2022/09/10 05:40:21;;;;;;;24.20;14.77;;;15.50;99.90;;;;;;5069418;28;20041;-74
2022/09/10 05:42:48;;;;;;;23.25;15.48;;;15.50;99.90;;;;;;5069086;28;20036;-74
2022/09/10 05:45:14;;;;;;;23.40;15.30;;;15.50;99.90;;;;;;5069427;28;20044;-74
2022/09/10 05:47:40;;;;;;;23.25;15.23;;;15.50;99.90;;;;;;5069028;28;20082;-74
2022/09/10 05:50:10;;;;;;;25.67;16.27;;;15.40;99.90;;;;;;5069652;28;20417;-74
2022/09/10 05:52:35;;;;;;;23.27;15.68;;;15.40;99.90;;;;;;5069136;28;20493;-74
2022/09/10 05:55:01;;;;;;;21.98;15.50;;;15.40;99.90;;;;;;5069145;28;20162;-74
2022/09/10 05:57:27;;;;;;;26.45;16.10;;;15.30;99.90;;;;;;5069393;28;20072;-74
2022/09/10 05:59:52;;;;;;;25.92;15.52;;;15.40;99.90;;;;;;5069191;28;20067;-74
2022/09/10 06:02:18;;;;;;;23.83;17.10;;;15.50;99.90;;;;;;5069299;28;20045;-74
2022/09/10 06:04:44;;;;;;;25.83;16.10;;;15.50;99.90;;;;;;5068513;28;20037;-74
2022/09/10 06:07:10;;;;;;;26.45;16.50;;;15.50;99.90;;;;;;5069662;28;20043;-74
2022/09/10 06:09:36;;;;;;;25.25;17.00;;;15.50;99.90;;;;;;5069053;28;20066;-74
2022/09/10 06:12:05;;;;;;;25.90;15.93;;;15.40;99.90;;;;;;5069276;28;20037;-74
2022/09/10 06:14:31;;;;;;;26.67;16.52;;;15.50;99.90;;;;;;5068902;28;20098;-74
2022/09/10 06:16:57;;;;;;;24.08;16.85;;;15.50;99.90;;;;;;5069074;28;20513;-74
2022/09/10 06:19:22;;;;;;;30.85;16.45;;;15.60;99.90;;;;;;5052728;28;20076;-74
2022/09/10 06:21:49;;;;;;;29.42;17.27;;;15.70;99.90;;;;;;5052520;28;20119;-74
2022/09/10 06:24:15;;;;;;;31.10;16.92;;;15.60;99.90;;;;;;5068463;28;20086;-74
2022/09/10 06:26:41;;;;;;;28.73;17.55;;;15.70;99.90;;;;;;5070264;28;20045;-74
2022/09/10 06:29:07;;;;;;;25.27;16.48;;;15.80;99.90;;;;;;5068606;28;20127;-74
2022/09/10 06:31:33;;;;;;;22.13;16.55;;;15.70;99.90;;;;;;5068780;28;20119;-74
2022/09/10 06:34:00;;;;;;;23.48;16.55;;;15.80;99.90;;;;;;5068223;28;20490;-74
2022/09/10 06:36:28;;;;;;;23.58;16.33;;;15.80;99.90;;;;;;5072704;28;20105;-74
2022/09/10 06:38:56;;;;;;;26.35;16.38;;;15.90;99.90;;;;;;5068874;28;20166;-74
2022/09/10 06:41:25;;;;;;;22.25;16.13;;;15.90;99.90;;;;;;5056170;28;20124;-74
2022/09/10 06:43:51;;;;;;;23.92;16.88;;;15.90;99.90;;;;;;5072155;28;20059;-74
2022/09/10 06:46:18;;;;;;;25.48;16.60;;;16.00;99.90;;;;;;5072295;28;20045;-74
2022/09/10 06:48:44;;;;;;;23.92;15.30;;;16.00;99.90;;;;;;5072231;28;20036;-73
2022/09/10 06:51:12;;;;;;;23.33;16.30;;;16.00;99.90;;;;;;5071850;28;20044;-73
2022/09/10 06:53:39;;;;;;;23.17;15.77;;;16.10;99.90;;;;;;5072065;28;20052;-73
2022/09/10 06:56:10;;;;;;;23.25;16.83;;;16.10;99.90;;;;;;5071994;28;20041;-73
2022/09/10 06:58:36;;;;;;;26.90;16.38;;;16.10;99.90;;;;;;5072220;28;20067;-74
2022/09/10 07:01:09;;;;;;;25.25;15.88;;;16.20;99.90;;;;;;5072425;28;20570;-74
2022/09/10 07:03:36;;;;;;;29.80;16.83;;;16.10;99.90;;;;;;5084316;22;20048;-78
2022/09/10 07:06:12;;;;;;;23.65;16.33;;;16.20;99.90;;;;;;5035396;28;20501;-77
2022/09/10 07:08:44;;;;;;;23.05;16.58;;;16.20;99.90;;;;;;5036377;28;20041;-78
2022/09/10 07:11:14;;;;;;;24.83;17.13;;;16.20;99.90;;;;;;5051281;28;20132;-78
2022/09/10 07:14:16;;;;;;;24.95;16.27;;;16.20;99.90;;;;;;5032123;28;20041;-79
2022/09/10 07:16:46;;;;;;;20.20;15.75;;;16.20;99.90;;;;;;5027936;28;20049;-80
2022/09/10 07:19:13;;;;;;;24.70;16.27;;;16.20;99.90;;;;;;5022690;28;20060;-79
2022/09/10 07:22:03;;;;;;;22.80;15.82;;;16.20;99.90;;;;;;5035405;28;20073;-79
2022/09/10 07:24:32;;;;;;;24.25;16.90;;;16.20;99.90;;;;;;5033912;28;20052;-80
2022/09/10 07:27:00;;;;;;;26.00;16.15;;;16.20;99.90;;;;;;5015758;28;20045;-79
2022/09/10 07:29:30;;;;;;;23.77;16.42;;;16.20;99.90;;;;;;5047527;28;20053;-79
2022/09/10 07:31:56;;;;;;;23.40;16.15;;;16.30;99.90;;;;;;5013482;28;20136;-79
2022/09/10 07:34:34;;;;;;;22.58;15.68;;;16.30;99.90;;;;;;5041578;28;20041;-79
2022/09/10 07:37:00;;;;;;;22.98;14.88;;;16.30;99.90;;;;;;5010029;28;20038;-80
2022/09/10 07:39:31;;;;;;;19.92;14.02;;;16.30;99.90;;;;;;5016321;28;20044;-79
2022/09/10 07:41:59;;;;;;;21.40;13.73;;;16.40;99.90;;;;;;5011130;28;20050;-79
2022/09/10 07:44:30;;;;;;;18.48;13.23;;;16.30;99.90;;;;;;5015736;28;20040;-79
2022/09/10 07:46:57;;;;;;;19.60;13.63;;;16.40;99.90;;;;;;5005003;28;20038;-79
2022/09/10 07:49:28;;;;;;;20.73;13.32;;;16.40;99.90;;;;;;5023246;28;20036;-79
2022/09/10 07:51:58;;;;;;;20.23;13.27;;;16.40;99.90;;;;;;5041334;28;20037;-81
2022/09/10 07:54:24;;;;;;;18.90;12.38;;;16.50;99.90;;;;;;5023951;28;20041;-79
2022/09/10 07:56:50;;;;;;;21.65;12.82;;;16.50;99.90;;;;;;5037353;28;20029;-80
2022/09/10 07:59:16;;;;;;;19.08;12.48;;;16.60;99.90;;;;;;5053075;28;20029;-79
2022/09/10 08:01:43;;;;;;;17.15;13.05;;;16.70;99.90;;;;;;5039414;28;20033;-80
2022/09/10 08:04:13;;;;;;;19.30;13.85;;;16.70;99.90;;;;;;5024173;28;20049;-79
2022/09/10 08:06:42;;;;;;;19.45;13.02;;;16.70;99.90;;;;;;5030836;28;20044;-79
2022/09/10 08:09:09;;;;;;;17.55;13.50;;;16.60;99.90;;;;;;5043026;28;20410;-79
2022/09/10 08:11:34;;;;;;;22.02;14.13;;;17.00;99.90;;;;;;5017844;28;20045;-80
2022/09/10 08:14:00;;;;;;;17.52;12.50;;;17.10;99.90;;;;;;5047329;28;20410;-79
2022/09/10 08:16:27;;;;;;;19.85;12.55;;;17.30;99.90;;;;;;5018898;28;20076;-80
2022/09/10 08:18:56;;;;;;;17.67;13.18;;;17.40;99.90;;;;;;5032978;28;20045;-80
2022/09/10 08:21:22;;;;;;;18.40;13.23;;;17.10;99.90;;;;;;5038957;28;20037;-79
2022/09/10 08:23:50;;;;;;;19.08;12.82;;;17.20;99.90;;;;;;5033154;28;20038;-80
2022/09/10 08:26:22;;;;;;;16.83;12.95;;;17.10;99.90;;;;;;5034362;28;20029;-80
2022/09/10 08:28:52;;;;;;;17.80;12.75;;;17.10;99.90;;;;;;5041120;28;20037;-79
2022/09/10 08:31:18;;;;;;;17.25;11.90;;;17.10;99.90;;;;;;5038723;28;20036;-79
2022/09/10 08:33:51;;;;;;;17.02;12.38;;;17.20;99.90;;;;;;5015511;28;20479;-80
2022/09/10 08:36:20;;;;;;;17.60;11.75;;;17.20;99.90;;;;;;5038234;28;20033;-80
2022/09/10 08:38:49;;;;;;;15.30;11.57;;;17.20;99.90;;;;;;5040348;28;20044;-79
2022/09/10 08:41:40;;;;;;;17.88;12.13;;;17.20;99.90;;;;;;5014628;28;20040;-80
2022/09/10 08:44:35;;;;;;;15.55;11.57;;;17.30;99.90;;;;;;5042940;28;20094;-79
2022/09/10 08:47:20;;;;;;;16.17;11.05;;;17.30;99.90;;;;;;5043911;28;20033;-80
2022/09/10 08:49:49;;;;;;;20.40;11.55;;;17.30;99.90;;;;;;5034576;28;20033;-80
2022/09/10 08:52:32;;;;;;;17.55;11.32;;;17.40;99.90;;;;;;5035574;28;20052;-79
2022/09/10 08:55:18;;;;;;;17.42;11.57;;;17.40;99.90;;;;;;5010995;28;20025;-79
2022/09/10 08:58:06;;;;;;;16.77;10.88;;;17.60;99.90;;;;;;5028490;28;20103;-80
2022/09/10 09:00:37;;;;;;;16.23;10.82;;;17.50;99.90;;;;;;5013505;28;20072;-80
2022/09/10 09:03:05;;;;;;;15.88;11.55;;;17.80;99.90;;;;;;5033755;28;20041;-80
2022/09/10 09:05:49;;;;;;;14.80;10.77;;;17.50;99.90;;;;;;5045268;28;20044;-79
2022/09/10 09:08:21;;;;;;;15.82;10.15;;;17.50;99.90;;;;;;5037209;28;20041;-80
2022/09/10 09:10:52;;;;;;;13.35;10.40;;;17.60;99.90;;;;;;5018195;28;20042;-80
2022/09/10 09:13:43;;;;;;;16.87;11.57;;;17.80;99.90;;;;;;5019494;28;20049;-79
2022/09/10 09:16:22;;;;;;;14.10;10.57;;;17.40;99.90;;;;;;5029458;28;20379;-80
2022/09/10 09:19:00;;;;;;;14.57;9.93;;;17.40;99.90;;;;;;5028103;28;20095;-79
2022/09/10 09:21:42;;;;;;;15.50;11.35;;;17.40;99.90;;;;;;5033412;28;20534;-79
2022/09/10 09:24:43;;;;;;;20.67;11.10;;;17.10;99.90;;;;;;5033049;28;20033;-79
2022/09/10 09:27:15;;;;;;;14.40;11.05;;;17.50;99.90;;;;;;5033133;28;20107;-79
2022/09/10 09:30:04;;;;;;;15.70;10.75;;;17.50;99.90;;;;;;5042664;28;20131;-79
2022/09/10 09:32:33;;;;;;;16.05;11.02;;;17.60;99.90;;;;;;5029394;28;20060;-79
2022/09/10 09:35:31;;;;;;;14.93;10.23;;;17.60;99.90;;;;;;5014883;28;20402;-79
2022/09/10 09:38:06;;;;;;;12.60;9.75;;;17.60;99.90;;;;;;5019469;28;20099;-79
2022/09/10 09:41:10;;;;;;;15.32;10.00;;;17.80;99.90;;;;;;5032209;28;20067;-79
2022/09/10 09:44:07;;;;;;;13.95;9.25;;;17.90;99.90;;;;;;5028345;28;20052;-79
2022/09/10 09:46:36;;;;;;;11.73;8.82;;;18.20;99.90;;;;;;5021762;28;20090;-80
2022/09/10 09:49:02;;;;;;;12.23;8.43;;;18.60;99.90;;;;;;5033643;28;20054;-80
2022/09/10 09:51:34;;;;;;;11.02;7.70;;;19.00;99.90;;;;;;5017228;28;20025;-80
2022/09/10 09:54:06;;;;;;;12.15;6.93;;;19.20;99.90;;;;;;5040011;28;20037;-82
2022/09/10 09:56:41;;;;;;;13.20;8.10;;;19.40;99.90;;;;;;5027560;28;20041;-80
2022/09/10 09:59:20;;;;;;;10.68;6.25;;;19.50;99.90;;;;;;5048631;28;20595;-80
2022/09/10 10:01:50;;;;;;;13.98;7.07;;;19.50;99.90;;;;;;5023261;28;20037;-80
2022/09/10 10:04:23;;;;;;;11.52;8.05;;;19.40;99.90;;;;;;5029232;28;20380;-80
2022/09/10 10:06:57;;;;;;;11.02;7.88;;;19.30;99.90;;;;;;5030906;28;20036;-80
2022/09/10 10:09:39;;;;;;;11.15;8.10;;;19.30;99.90;;;;;;5034549;28;20089;-80
2022/09/10 10:12:06;;;;;;;11.05;6.95;;;19.50;99.90;;;;;;5034498;28;20068;-81
2022/09/10 10:14:33;;;;;;;9.88;6.88;;;19.80;99.90;;;;;;5015671;28;20573;-81
2022/09/10 10:17:00;;;;;;;11.20;6.85;;;20.10;99.90;;;;;;5024242;28;20044;-81
2022/09/10 10:19:37;;;;;;;10.95;6.50;;;20.30;99.90;;;;;;5017331;28;20041;-81
2022/09/10 10:22:23;;;;;;;11.60;7.00;;;20.30;99.90;;;;;;5037858;28;20115;-81
2022/09/10 10:24:54;;;;;;;8.77;5.75;;;20.20;99.90;;;;;;5039000;28;20045;-80
2022/09/10 10:27:26;;;;;;;8.77;6.20;;;20.20;99.90;;;;;;5035113;28;20045;-80
2022/09/10 10:30:01;;;;;;;9.50;5.75;;;20.20;99.90;;;;;;5048531;28;20036;-81
2022/09/10 10:32:40;;;;;;;9.43;5.60;;;20.20;99.90;;;;;;5034850;28;20124;-80
2022/09/10 10:35:41;;;;;;;11.35;5.78;;;20.30;99.90;;;;;;5047058;28;20045;-80
2022/09/10 10:38:36;;;;;;;8.43;6.15;;;20.50;99.90;;;;;;5018969;28;20049;-81
2022/09/10 10:41:30;;;;;;;8.20;5.10;;;20.50;99.90;;;;;;5024854;28;20040;-79
2022/09/10 10:44:20;;;;;;;10.10;4.82;;;20.50;99.90;;;;;;5024693;28;20032;-79
2022/09/10 10:47:14;;;;;;;6.70;4.57;;;20.60;99.90;;;;;;5018548;28;20183;-79
2022/09/10 10:50:12;;;;;;;7.03;3.88;;;20.60;99.90;;;;;;5011662;28;20045;-80
2022/09/10 10:52:54;;;;;;;7.70;5.20;;;20.50;99.90;;;;;;5035003;28;20052;-79
2022/09/10 10:55:23;;;;;;;7.03;4.03;;;20.40;99.90;;;;;;5018764;28;20542;-79
2022/09/10 10:58:11;;;;;;;6.22;3.58;;;20.40;99.90;;;;;;5038573;28;20034;-79
2022/09/10 11:00:42;;;;;;;6.10;4.05;;;20.30;99.90;;;;;;5037902;28;20085;-79
2022/09/10 11:03:47;;;;;;;7.40;4.63;;;20.30;99.90;;;;;;5046861;28;20502;-81
2022/09/10 11:06:19;;;;;;;7.43;4.47;;;20.40;99.90;;;;;;5037424;28;20048;-82
2022/09/10 11:09:03;;;;;;;5.75;4.05;;;20.40;99.90;;;;;;5035107;28;20083;-80
2022/09/10 11:11:39;;;;;;;8.15;4.55;;;20.60;99.90;;;;;;5023763;28;20131;-80
2022/09/10 11:14:33;;;;;;;8.80;4.53;;;20.70;99.90;;;;;;5018602;28;20166;-80
2022/09/10 11:17:04;;;;;;;6.03;4.20;;;20.80;99.90;;;;;;5029420;28;20115;-78
2022/09/10 11:19:37;;;;;;;6.43;3.53;;;21.00;99.90;;;;;;5032488;28;20100;-80
2022/09/10 11:22:24;;;;;;;7.43;3.72;;;21.00;99.90;;;;;;5023361;28;20040;-79
2022/09/10 11:25:08;;;;;;;7.35;3.85;;;21.10;99.90;;;;;;5017998;28;20045;-80
2022/09/10 11:27:45;;;;;;;7.53;3.63;;;21.10;99.90;;;;;;5023789;28;20566;-82
2022/09/10 11:30:15;;;;;;;6.30;3.53;;;21.10;99.90;;;;;;5019987;28;20438;-78
2022/09/10 11:32:59;;;;;;;5.47;3.85;;;21.10;99.90;;;;;;5034657;28;20080;-78
2022/09/10 11:35:56;;;;;;;8.25;3.58;;;21.30;99.90;;;;;;5021631;28;20033;-78
2022/09/10 11:38:43;;;;;;;5.85;3.70;;;21.50;99.90;;;;;;5036033;28;20092;-80
2022/09/10 11:41:21;;;;;;;6.07;3.55;;;21.70;99.90;;;;;;5031862;28;20052;-77
2022/09/10 11:43:48;;;;;;;4.63;3.08;;;21.90;99.90;;;;;;5038544;28;20156;-80
2022/09/10 11:46:22;;;;;;;5.40;2.90;;;22.00;99.90;;;;;;5021752;28;20072;-77
2022/09/10 11:49:08;;;;;;;5.00;2.80;;;22.10;99.90;;;;;;5020019;28;20041;-79
2022/09/10 11:51:38;;;;;;;3.72;2.92;;;22.30;99.90;;;;;;5023179;28;20041;-79
2022/09/10 11:54:15;;;;;;;3.47;2.60;;;22.50;99.90;;;;;;5038863;28;20047;-78
2022/09/10 11:56:51;;;;;;;6.53;2.40;;;22.50;99.90;;;;;;5038269;28;20101;-78
2022/09/10 11:59:40;;;;;;;4.72;2.45;;;22.60;99.90;;;;;;5036443;28;20053;-78
2022/09/10 12:02:54;;;;;;;6.00;2.20;;;22.80;99.90;;;;;;5050721;28;20451;-79
2022/09/10 12:05:44;;;;;;;3.70;1.98;;;23.00;99.90;;;;;;5002438;28;20064;-79
2022/09/10 12:08:44;;;;;;;4.88;3.10;;;23.20;99.90;;;;;;5034650;28;20037;-80
2022/09/10 12:11:23;;;;;;;5.32;3.35;;;23.30;99.90;;;;;;5032499;28;20048;-80
2022/09/10 12:13:51;;;;;;;4.47;3.17;;;23.30;99.90;;;;;;5020661;28;20137;-80
2022/09/10 12:16:47;;;;;;;5.47;3.20;;;23.30;99.90;;;;;;5015330;28;20051;-80
2022/09/10 12:19:36;;;;;;;6.78;3.30;;;23.40;99.90;;;;;;5024623;28;20569;-78
2022/09/10 12:22:21;;;;;;;4.97;3.50;;;23.30;99.90;;;;;;5043898;28;20033;-79
2022/09/10 12:24:59;;;;;;;6.30;3.63;;;23.20;99.90;;;;;;5048250;28;20428;-76
2022/09/10 12:27:48;;;;;;;3.88;3.22;;;23.10;99.90;;;;;;5028380;28;20104;-75
2022/09/10 12:30:26;;;;;;;6.82;3.20;;;23.10;99.90;;;;;;5041767;28;20060;-76
2022/09/10 12:32:58;;;;;;;5.43;3.70;;;23.00;99.90;;;;;;5038691;28;20564;-76
2022/09/10 12:35:36;;;;;;;;;;;23.00;99.90;;;;;;5031175;28;21081;-76
2022/09/10 12:38:40;;;;;;;6.22;4.25;;;22.80;99.80;;;;;;5032517;28;19921;-76
2022/09/10 12:41:13;;;;;;;8.10;4.28;;;22.60;99.90;;;;;;5009154;28;20116;-79
2022/09/10 12:43:42;;;;;;;9.13;4.05;;;22.50;99.90;;;;;;5021440;28;20041;-81
2022/09/10 12:46:07;;;;;;;7.35;3.72;;;22.30;99.90;;;;;;5016160;28;20041;-80
2022/09/10 12:48:54;;;;;;;5.85;4.00;;;22.30;99.90;;;;;;5025737;28;20042;-78
2022/09/10 12:51:59;;;;;;;7.03;3.90;;;22.20;99.90;;;;;;5014734;28;20088;-76
2022/09/10 12:54:28;;;;;;;6.40;3.85;;;22.10;99.90;;;;;;5022135;28;20499;-78
2022/09/10 12:57:21;;;;;;;7.38;3.78;;;22.00;99.90;;;;;;5027607;28;20041;-78
2022/09/10 13:00:23;;;;;;;7.78;3.60;;;21.90;99.90;;;;;;5031233;28;20056;-77
2022/09/10 13:02:49;;;;;;;;;;;21.90;99.90;;;;;;5006300;28;20415;-77